Bao An Cheng 69 — BVBD5 — position and weather

sailwx.info

Track history (hours):
 
Tides and Currents Weather Stations Pressure Air Temp Water Temp Dewpoint Dewpoint Depression Visibility Wind Speed Wind Dir Waves Ship Positions

Bao An Cheng 69

Last reported at 2018-Feb-24 22:13 UTC. Time now 2018-Feb-25 00:15 UTC.
Position N 24°29' E 118°37'.

Length 121 m; draft 4.9 m.

Type: Cargo ship. MMSI: 412703090.

Date/timePositionNaut miles runAvg speedWind from/ knotsBaromVisibWave heightAir tempDewpointWater temp
2018-Feb-24 22:13N 24°29' E 118°37'2 9.3
2018-Feb-24 21:57N 24°27' E 118°35'4 9.8
2018-Feb-24 21:30N 24°24' E 118°31'5 9.7
2018-Feb-24 21:00N 24°22' E 118°27'5 9.8
2018-Feb-24 20:30N 24°20' E 118°22'5 9.8
2018-Feb-24 20:00N 24°20' E 118°16'510.0
2018-Feb-24 19:30N 24°21' E 118°11'5 9.2
2018-Feb-24 19:00N 24°24' E 118°07'5 9.1
2018-Feb-24 18:30N 24°26' E 118°02'2 4.2
2018-Feb-24 18:00N 24°27' E 118°00'0 0.0
2018-Feb-24 17:28N 24°27' E 118°00'0 0.0
2018-Feb-24 17:00N 24°27' E 118°00'0 0.0
2018-Feb-24 16:30N 24°27' E 118°00'0 0.0
2018-Feb-24 15:51N 24°27' E 118°00'0 0.0
2018-Feb-24 15:30N 24°27' E 118°00'0 0.0
2018-Feb-24 15:00N 24°27' E 118°00'0 0.0
2018-Feb-24 14:27N 24°27' E 118°00'0 0.0
2018-Feb-24 14:00N 24°27' E 118°00'0 0.0
2018-Feb-24 13:30N 24°27' E 118°00'0 0.0
2018-Feb-24 12:57N 24°27' E 118°00'0 0.0
2018-Feb-24 12:30N 24°27' E 118°00'0 0.0
2018-Feb-24 12:00N 24°27' E 118°00'0 0.0
2018-Feb-24 11:28N 24°27' E 118°00'0 0.0
2018-Feb-24 10:55N 24°27' E 118°00'0 0.0
2018-Feb-24 10:28N 24°27' E 118°00'0 0.0
2018-Feb-24 09:55N 24°27' E 118°00'0 0.0
2018-Feb-24 09:28N 24°27' E 118°00'0 0.0
2018-Feb-24 08:58N 24°27' E 118°00'0 0.0
2018-Feb-24 08:25N 24°27' E 118°00'0 0.0
2018-Feb-24 07:58N 24°27' E 118°00'0 0.0
2018-Feb-24 07:28N 24°27' E 118°00'0 0.0
2018-Feb-24 06:58N 24°27' E 118°00'0 0.0
2018-Feb-24 06:28N 24°27' E 118°00'0 0.0
2018-Feb-24 05:55N 24°27' E 118°00'0 0.0
2018-Feb-24 05:28N 24°27' E 118°00'0 0.0
2018-Feb-24 04:59N 24°27' E 118°00'0 0.0
2018-Feb-24 04:29N 24°27' E 118°00'0 0.0
2018-Feb-24 03:59N 24°27' E 118°00'0 0.0
2018-Feb-24 03:29N 24°27' E 118°00'1 1.1
2018-Feb-24 03:01N 24°27' E 118°01'4 7.6
2018-Feb-24 02:30N 24°25' E 118°05'4 7.8
2018-Feb-24 02:01N 24°22' E 118°08'8 8.3
2018-Feb-24 01:01N 24°20' E 118°17'5 9.2
2018-Feb-24 00:30N 24°20' E 118°22'5 9.6
2018-Feb-24 00:01N 24°22' E 118°27'5 9.9
2018-Feb-23 23:30N 24°24' E 118°31'5 9.9
2018-Feb-23 23:01N 24°27' E 118°36'23 1.4
2018-Feb-23 06:47N 24°49' E 118°43'19 2.5
2018-Feb-22 23:15N 24°31' E 118°40'2 7.0
2018-Feb-22 23:00N 24°30' E 118°38'5 7.1
2018-Feb-22 22:21N 24°27' E 118°34'2 7.1
2018-Feb-22 22:00N 24°25' E 118°32'3 7.0
2018-Feb-22 21:30N 24°23' E 118°29'4 7.4
2018-Feb-22 21:00N 24°22' E 118°26'4 7.8
2018-Feb-22 20:30N 24°21' E 118°21'4 8.2
2018-Feb-22 20:00N 24°20' E 118°17'4 8.3
2018-Feb-22 19:30N 24°20' E 118°12'4 8.4
2018-Feb-22 19:01N 24°22' E 118°08'4 8.2
2018-Feb-22 18:30N 24°25' E 118°05'4 7.7
2018-Feb-22 18:01N 24°26' E 118°01'1 1.6
2018-Feb-22 17:29N 24°27' E 118°00'0 0.0
2018-Feb-22 16:59N 24°27' E 118°00'0 0.0
2018-Feb-22 16:29N 24°27' E 118°00'0 0.0
2018-Feb-22 15:59N 24°27' E 118°00'0 0.0
2018-Feb-22 15:29N 24°27' E 118°00'0 0.0
2018-Feb-22 14:59N 24°27' E 118°00'0 0.0
2018-Feb-22 14:29N 24°27' E 118°00'0 0.0
2018-Feb-22 13:59N 24°27' E 118°00'0 0.0
2018-Feb-22 13:29N 24°27' E 118°00'0 0.0
2018-Feb-22 12:59N 24°27' E 118°00'0 0.0
2018-Feb-22 12:29N 24°27' E 118°00'0 0.0
2018-Feb-22 11:59N 24°27' E 118°00'0 0.0
2018-Feb-22 11:26N 24°27' E 118°00'0 0.0
2018-Feb-22 10:59N 24°27' E 118°00'0 0.0
2018-Feb-22 10:29N 24°27' E 118°00'0 0.0
2018-Feb-22 09:59N 24°27' E 118°00'0 0.0
2018-Feb-22 09:20N 24°27' E 118°00'0 0.0
2018-Feb-22 08:59N 24°27' E 118°00'0 0.0
2018-Feb-22 08:29N 24°27' E 118°00'0 0.0
2018-Feb-22 07:59N 24°27' E 118°00'0 0.0
2018-Feb-22 07:23N 24°27' E 118°00'0 0.0
2018-Feb-22 06:59N 24°27' E 118°00'0 0.0
2018-Feb-22 06:29N 24°27' E 118°00'0 0.0
2018-Feb-22 05:56N 24°27' E 118°00'0 0.0
2018-Feb-22 05:29N 24°27' E 118°00'0 0.0
2018-Feb-22 04:59N 24°27' E 118°00'0 0.0
2018-Feb-22 04:26N 24°27' E 118°00'0 0.0
2018-Feb-22 03:59N 24°27' E 118°00'0 0.0
2018-Feb-22 03:29N 24°27' E 118°00'0 0.0
2018-Feb-22 02:59N 24°27' E 118°00'0 0.0
2018-Feb-22 02:26N 24°27' E 118°00'0 0.0
2018-Feb-22 01:59N 24°27' E 118°00'0 0.0
2018-Feb-22 01:29N 24°27' E 118°00'0 0.0
2018-Feb-22 00:56N 24°27' E 118°00'0 0.2
2018-Feb-22 00:30N 24°27' E 118°00'3 6.4
2018-Feb-22 00:00N 24°26' E 118°04'4 7.3
2018-Feb-21 23:30N 24°24' E 118°07'4 7.0
2018-Feb-21 22:58N 24°21' E 118°10'0 0.6
2018-Feb-21 22:30N 24°21' E 118°10'0 0.0
2018-Feb-21 22:00N 24°21' E 118°10'0 0.0
2018-Feb-21 21:31N 24°21' E 118°10'1 1.0
2018-Feb-21 21:00N 24°21' E 118°11'4 8.0
2018-Feb-21 20:30N 24°20' E 118°15'5 9.7
2018-Feb-21 20:00N 24°20' E 118°20'510.3
2018-Feb-21 19:30N 24°22' E 118°26'510.4
2018-Feb-21 19:00N 24°24' E 118°31'27 1.6
2018-Feb-21 02:06N 24°48' E 118°42'0 0.0
2018-Feb-20 08:15N 24°48' E 118°42'0 0.0
2018-Feb-20 07:42N 24°48' E 118°42'0 0.1
2018-Feb-20 05:32N 24°48' E 118°42'0 0.0
2018-Feb-20 05:25N 24°48' E 118°42'0 0.0
2018-Feb-19 12:56N 24°48' E 118°42'0 0.0
2018-Feb-19 11:20N 24°48' E 118°42'0 0.0
2018-Feb-19 10:59N 24°48' E 118°42'0 0.0
2018-Feb-19 10:29N 24°48' E 118°42'0 0.0
2018-Feb-19 09:59N 24°48' E 118°42'0 0.0
2018-Feb-19 09:29N 24°48' E 118°42'0 0.0
2018-Feb-19 08:59N 24°48' E 118°42'0 0.0
2018-Feb-19 08:08N 24°48' E 118°42'0 0.0
2018-Feb-19 07:59N 24°48' E 118°42'0 0.0
2018-Feb-19 07:29N 24°48' E 118°42'0 0.0
2018-Feb-18 12:33N 24°48' E 118°42'0 0.0
2018-Feb-18 12:24N 24°48' E 118°42'0 0.0
2018-Feb-18 12:00N 24°48' E 118°42'0 0.0
2018-Feb-18 09:01N 24°48' E 118°42'0 0.0
2018-Feb-18 08:52N 24°48' E 118°42'0 0.0
2018-Feb-18 04:48N 24°48' E 118°42'0 0.0
2018-Feb-18 04:30N 24°48' E 118°42'  
2018-Feb-15 10:28N 24°48' E 118°42'  
Track history (hours):
 
Tides and Currents Weather Stations Pressure Air Temp Water Temp Dewpoint Dewpoint Depression Visibility Wind Speed Wind Dir Waves Ship Positions

Bao An Cheng 69

Last reported at 2018-Feb-24 22:13 UTC. Time now 2018-Feb-25 00:15 UTC.
Position N 24°29' E 118°37'.

Length 121 m; draft 4.9 m.

Type: Cargo ship. MMSI: 412703090.

Date/timePositionNaut miles runAvg speedWind from/ knotsBaromVisibWave heightAir tempDewpointWater temp
2018-Feb-24 22:13N 24°29' E 118°37'2 9.3
2018-Feb-24 21:57N 24°27' E 118°35'4 9.8
2018-Feb-24 21:30N 24°24' E 118°31'5 9.7
2018-Feb-24 21:00N 24°22' E 118°27'5 9.8
2018-Feb-24 20:30N 24°20' E 118°22'5 9.8
2018-Feb-24 20:00N 24°20' E 118°16'510.0
2018-Feb-24 19:30N 24°21' E 118°11'5 9.2
2018-Feb-24 19:00N 24°24' E 118°07'5 9.1
2018-Feb-24 18:30N 24°26' E 118°02'2 4.2
2018-Feb-24 18:00N 24°27' E 118°00'0 0.0
2018-Feb-24 17:28N 24°27' E 118°00'0 0.0
2018-Feb-24 17:00N 24°27' E 118°00'0 0.0
2018-Feb-24 16:30N 24°27' E 118°00'0 0.0
2018-Feb-24 15:51N 24°27' E 118°00'0 0.0
2018-Feb-24 15:30N 24°27' E 118°00'0 0.0
2018-Feb-24 15:00N 24°27' E 118°00'0 0.0
2018-Feb-24 14:27N 24°27' E 118°00'0 0.0
2018-Feb-24 14:00N 24°27' E 118°00'0 0.0
2018-Feb-24 13:30N 24°27' E 118°00'0 0.0
2018-Feb-24 12:57N 24°27' E 118°00'0 0.0
2018-Feb-24 12:30N 24°27' E 118°00'0 0.0
2018-Feb-24 12:00N 24°27' E 118°00'0 0.0
2018-Feb-24 11:28N 24°27' E 118°00'0 0.0
2018-Feb-24 10:55N 24°27' E 118°00'0 0.0
2018-Feb-24 10:28N 24°27' E 118°00'0 0.0
2018-Feb-24 09:55N 24°27' E 118°00'0 0.0
2018-Feb-24 09:28N 24°27' E 118°00'0 0.0
2018-Feb-24 08:58N 24°27' E 118°00'0 0.0
2018-Feb-24 08:25N 24°27' E 118°00'0 0.0
2018-Feb-24 07:58N 24°27' E 118°00'0 0.0
2018-Feb-24 07:28N 24°27' E 118°00'0 0.0
2018-Feb-24 06:58N 24°27' E 118°00'0 0.0
2018-Feb-24 06:28N 24°27' E 118°00'0 0.0
2018-Feb-24 05:55N 24°27' E 118°00'0 0.0
2018-Feb-24 05:28N 24°27' E 118°00'0 0.0
2018-Feb-24 04:59N 24°27' E 118°00'0 0.0
2018-Feb-24 04:29N 24°27' E 118°00'0 0.0
2018-Feb-24 03:59N 24°27' E 118°00'0 0.0
2018-Feb-24 03:29N 24°27' E 118°00'1 1.1
2018-Feb-24 03:01N 24°27' E 118°01'4 7.6
2018-Feb-24 02:30N 24°25' E 118°05'4 7.8
2018-Feb-24 02:01N 24°22' E 118°08'8 8.3
2018-Feb-24 01:01N 24°20' E 118°17'5 9.2
2018-Feb-24 00:30N 24°20' E 118°22'5 9.6
2018-Feb-24 00:01N 24°22' E 118°27'5 9.9
2018-Feb-23 23:30N 24°24' E 118°31'5 9.9
2018-Feb-23 23:01N 24°27' E 118°36'23 1.4
2018-Feb-23 06:47N 24°49' E 118°43'19 2.5
2018-Feb-22 23:15N 24°31' E 118°40'2 7.0
2018-Feb-22 23:00N 24°30' E 118°38'5 7.1
2018-Feb-22 22:21N 24°27' E 118°34'2 7.1
2018-Feb-22 22:00N 24°25' E 118°32'3 7.0
2018-Feb-22 21:30N 24°23' E 118°29'4 7.4
2018-Feb-22 21:00N 24°22' E 118°26'4 7.8
2018-Feb-22 20:30N 24°21' E 118°21'4 8.2
2018-Feb-22 20:00N 24°20' E 118°17'4 8.3
2018-Feb-22 19:30N 24°20' E 118°12'4 8.4
2018-Feb-22 19:01N 24°22' E 118°08'4 8.2
2018-Feb-22 18:30N 24°25' E 118°05'4 7.7
2018-Feb-22 18:01N 24°26' E 118°01'1 1.6
2018-Feb-22 17:29N 24°27' E 118°00'0 0.0
2018-Feb-22 16:59N 24°27' E 118°00'0 0.0
2018-Feb-22 16:29N 24°27' E 118°00'0 0.0
2018-Feb-22 15:59N 24°27' E 118°00'0 0.0
2018-Feb-22 15:29N 24°27' E 118°00'0 0.0
2018-Feb-22 14:59N 24°27' E 118°00'0 0.0
2018-Feb-22 14:29N 24°27' E 118°00'0 0.0
2018-Feb-22 13:59N 24°27' E 118°00'0 0.0
2018-Feb-22 13:29N 24°27' E 118°00'0 0.0
2018-Feb-22 12:59N 24°27' E 118°00'0 0.0
2018-Feb-22 12:29N 24°27' E 118°00'0 0.0
2018-Feb-22 11:59N 24°27' E 118°00'0 0.0
2018-Feb-22 11:26N 24°27' E 118°00'0 0.0
2018-Feb-22 10:59N 24°27' E 118°00'0 0.0
2018-Feb-22 10:29N 24°27' E 118°00'0 0.0
2018-Feb-22 09:59N 24°27' E 118°00'0 0.0
2018-Feb-22 09:20N 24°27' E 118°00'0 0.0
2018-Feb-22 08:59N 24°27' E 118°00'0 0.0
2018-Feb-22 08:29N 24°27' E 118°00'0 0.0
2018-Feb-22 07:59N 24°27' E 118°00'0 0.0
2018-Feb-22 07:23N 24°27' E 118°00'0 0.0
2018-Feb-22 06:59N 24°27' E 118°00'0 0.0
2018-Feb-22 06:29N 24°27' E 118°00'0 0.0
2018-Feb-22 05:56N 24°27' E 118°00'0 0.0
2018-Feb-22 05:29N 24°27' E 118°00'0 0.0
2018-Feb-22 04:59N 24°27' E 118°00'0 0.0
2018-Feb-22 04:26N 24°27' E 118°00'0 0.0
2018-Feb-22 03:59N 24°27' E 118°00'0 0.0
2018-Feb-22 03:29N 24°27' E 118°00'0 0.0
2018-Feb-22 02:59N 24°27' E 118°00'0 0.0
2018-Feb-22 02:26N 24°27' E 118°00'0 0.0
2018-Feb-22 01:59N 24°27' E 118°00'0 0.0
2018-Feb-22 01:29N 24°27' E 118°00'0 0.0
2018-Feb-22 00:56N 24°27' E 118°00'0 0.2
2018-Feb-22 00:30N 24°27' E 118°00'3 6.4
2018-Feb-22 00:00N 24°26' E 118°04'4 7.3
2018-Feb-21 23:30N 24°24' E 118°07'4 7.0
2018-Feb-21 22:58N 24°21' E 118°10'0 0.6
2018-Feb-21 22:30N 24°21' E 118°10'0 0.0
2018-Feb-21 22:00N 24°21' E 118°10'0 0.0
2018-Feb-21 21:31N 24°21' E 118°10'1 1.0
2018-Feb-21 21:00N 24°21' E 118°11'4 8.0
2018-Feb-21 20:30N 24°20' E 118°15'5 9.7
2018-Feb-21 20:00N 24°20' E 118°20'510.3
2018-Feb-21 19:30N 24°22' E 118°26'510.4
2018-Feb-21 19:00N 24°24' E 118°31'27 1.6
2018-Feb-21 02:06N 24°48' E 118°42'0 0.0
2018-Feb-20 08:15N 24°48' E 118°42'0 0.0
2018-Feb-20 07:42N 24°48' E 118°42'0 0.1
2018-Feb-20 05:32N 24°48' E 118°42'0 0.0
2018-Feb-20 05:25N 24°48' E 118°42'0 0.0
2018-Feb-19 12:56N 24°48' E 118°42'0 0.0
2018-Feb-19 11:20N 24°48' E 118°42'0 0.0
2018-Feb-19 10:59N 24°48' E 118°42'0 0.0
2018-Feb-19 10:29N 24°48' E 118°42'0 0.0
2018-Feb-19 09:59N 24°48' E 118°42'0 0.0
2018-Feb-19 09:29N 24°48' E 118°42'0 0.0
2018-Feb-19 08:59N 24°48' E 118°42'0 0.0
2018-Feb-19 08:08N 24°48' E 118°42'0 0.0
2018-Feb-19 07:59N 24°48' E 118°42'0 0.0
2018-Feb-19 07:29N 24°48' E 118°42'0 0.0
2018-Feb-18 12:33N 24°48' E 118°42'0 0.0
2018-Feb-18 12:24N 24°48' E 118°42'0 0.0
2018-Feb-18 12:00N 24°48' E 118°42'0 0.0
2018-Feb-18 09:01N 24°48' E 118°42'0 0.0
2018-Feb-18 08:52N 24°48' E 118°42'0 0.0
2018-Feb-18 04:48N 24°48' E 118°42'0 0.0
2018-Feb-18 04:30N 24°48' E 118°42'  
2018-Feb-15 10:28N 24°48' E 118°42'  

Dump ship's entire track history